• Join FlightAware (Why Join?)
  • Login
  • US Flag 
02:05AM EDT


 

Airport Tracker/Info


-or-


 

Live Flight TrackerFlight Track Log ✈ CRQ461 ✈ 16-Oct-2013 ✈ CYMO - CYTS

Flight Track Log - Related Links

Times and Time Zones

All times are in EDT time to prevent confusion due to time zone crossing. See the CRQ461 flight status page for this flight to view local times or setup timezone preferences in your user account.

Time Position Orientation Groundspeed Altitude Reporting Facility
EDT Latitude Longitude Course Direction KTS MPH feet Rate Location/Type
04:23PM 50.9489 -80.7094 188° South  Level Estimated
04:24PM 50.8919 -80.7262 191° South  Level Estimated
04:25PM 50.8348 -80.7424 190° South  Level FlightAware Approximate
04:26PM 50.7777 -80.7585 190° South  Level FlightAware Approximate
04:26PM 50.9667 -80.6833 190° South 200 230 10,900  Level Toronto Center
04:27PM 50.7206 -80.7746 190° South  Level FlightAware Approximate
04:28PM 50.6634 -80.7906 190° South  Level FlightAware Approximate
04:28PM 50.8500 -80.7333 195° South 220 253 10,200  Level Toronto Center
04:29PM 50.6063 -80.8066 190° South  Level FlightAware Approximate
04:29PM 50.7833 -80.7333 180° South 220 253 10,100  Level Toronto Center
04:30PM 50.5492 -80.8226 190° South  Level FlightAware Approximate
04:30PM 50.7333 -80.7667 203° Southwest 220 253 10,100  Level Toronto Center
04:31PM 50.4921 -80.8385 190° South  Level FlightAware Approximate
04:31PM 50.6667 -80.7833 189° South 220 253 10,100  Level Toronto Center
04:32PM 50.6167 -80.8167 203° Southwest 210 242 10,000 -60 Descending Toronto Center
04:33PM 50.5500 -80.8000 171° South 220 253 10,000  Level Toronto Center
04:34PM 50.5000 -80.8333 203° Southwest 210 242 10,100  Climbing Toronto Center
04:35PM 50.4333 -80.8500 189° South 210 242 10,100 -60 Level Toronto Center
04:36PM 50.3833 -80.8500 180° South 220 253 10,000  Descending Toronto Center
04:37PM 50.3167 -80.8833 198° South 210 242 10,100  Climbing Toronto Center
04:38PM 50.2667 -80.8833 180° South 200 230 10,100  Level Toronto Center
04:39PM 50.2000 -80.9000 189° South 210 242 10,100  Level Toronto Center
04:40PM 50.1500 -80.9333 203° Southwest 220 253 10,100  Level Toronto Center
04:41PM 50.1000 -80.9500 192° South 210 242 10,100  Level Toronto Center
04:42PM 50.0333 -80.9500 180° South 210 242 10,100  Level Toronto Center
04:43PM 49.9833 -80.9833 203° Southwest 210 242 10,100  Level Toronto Center
04:44PM 49.9167 -80.9667 171° South 210 242 10,100  Level Toronto Center
04:45PM 49.8667 -81.0000 203° Southwest 220 253 10,100  Level Toronto Center
04:46PM 49.8000 -81.0167 189° South 210 242 10,100  Level Toronto Center
04:47PM 49.7500 -81.0167 180° South 210 242 10,200  Climbing Toronto Center
04:48PM 49.6833 -81.0500 198° South 220 253 10,200  Level Toronto Center
04:49PM 49.6333 -81.0667 192° South 210 242 10,200 -60 Level Toronto Center
04:50PM 49.5667 -81.0667 180° South 220 253 10,100  Descending Toronto Center
04:51PM 49.5000 -81.0833 189° South 220 253 10,300 60 Climbing Toronto Center
04:52PM 49.4500 -81.1167 203° Southwest 220 253 10,300 -60 Level Toronto Center
04:54PM 49.3333 -81.1333 185° South 220 253 10,200 -120 Descending Toronto Center
04:55PM 49.2667 -81.1667 198° South 220 253 10,100  Descending Toronto Center
04:56PM 49.2167 -81.1833 192° South 220 253 10,200  Climbing Toronto Center
04:57PM 49.1500 -81.2167 198° South 220 253 10,200  Level Toronto Center
04:58PM 49.1000 -81.2333 192° South 220 253 10,200 -180 Level Toronto Center
04:59PM 49.0333 -81.2333 180° South 220 253 9,900 -600 Descending Toronto Center
05:00PM 48.9667 -81.2500 189° South 230 265 9,100 -840 Descending Toronto Center
05:01PM 48.9167 -81.2833 204° Southwest 230 265 8,300 -900 Descending Toronto Center
05:02PM 48.8500 -81.3000 189° South 230 265 7,400 -840 Descending Toronto Center
05:03PM 48.7833 -81.3000 180° South 220 253 6,700 -720 Descending Toronto Center
05:05PM 48.6803 -81.3306 188° South  Level FlightAware Approximate
05:12PM 48.5667 -81.3667 North  Level FlightAware Approximate
05:13PM 48.5697 -81.3767 North  Level Estimated
05:14PM 48.5697 -81.3767 North  Level Estimated
05:15PM 48.5697 -81.3767 North  Level Estimated
05:16PM 48.5697 -81.3767 North  Level Estimated
05:17PM 48.5697 -81.3767 North  Level Estimated
05:18PM 48.5697 -81.3767 North  Level Estimated
05:19PM 48.5697 -81.3767 North  Level Estimated
05:20PM 48.5697 -81.3767 North  Level Estimated